createdAt,value
2018-05-15T00:01:32.164Z,4.67
2018-05-15T00:06:35.447Z,4.70
2018-05-15T00:11:38.722Z,4.70
2018-05-15T00:16:41.995Z,5.13
2018-05-15T00:21:46.031Z,4.70
2018-05-15T00:26:49.288Z,4.63
2018-05-15T00:31:52.572Z,4.23
2018-05-15T00:36:55.840Z,4.03
2018-05-15T00:41:59.920Z,4.50
2018-05-15T00:47:03.215Z,4.70
2018-05-15T00:52:06.483Z,5.17
2018-05-15T00:57:09.727Z,4.13
2018-05-15T01:02:12.992Z,5.17
2018-05-15T01:07:16.348Z,4.63
2018-05-15T01:12:19.628Z,4.73
2018-05-15T01:17:23.655Z,3.73
2018-05-15T01:22:26.948Z,4.37
2018-05-15T01:27:30.227Z,4.30
2018-05-15T01:32:33.499Z,4.93
2018-05-15T01:37:36.770Z,4.63
2018-05-15T01:42:40.738Z,5.43
2018-05-15T01:47:44.036Z,5.07
2018-05-15T01:52:47.300Z,5.30
2018-05-15T01:57:50.564Z,4.77
2018-05-15T02:02:53.835Z,4.83
2018-05-15T02:07:57.094Z,4.53
2018-05-15T02:13:00.362Z,4.83
2018-05-15T02:18:04.401Z,4.40
2018-05-15T02:23:07.670Z,5.03
2018-05-15T02:28:10.927Z,4.73
2018-05-15T02:33:14.196Z,5.83
2018-05-15T02:38:18.253Z,4.77
2018-05-15T02:43:21.488Z,5.17
2018-05-15T02:48:24.763Z,4.87
2018-05-15T02:53:28.032Z,5.17
2018-05-15T02:58:31.314Z,5.37
2018-05-15T03:03:34.580Z,5.50
2018-05-15T03:08:38.604Z,5.97
2018-05-15T03:13:42.627Z,5.90
2018-05-15T03:18:45.907Z,5.67
2018-05-15T03:23:49.172Z,6.60
2018-05-15T03:28:52.456Z,6.27
2018-05-15T03:33:56.483Z,6.87
2018-05-15T03:38:59.772Z,6.00
2018-05-15T03:44:03.036Z,5.80
2018-05-15T03:49:06.333Z,5.97
2018-05-15T03:54:09.608Z,6.13
2018-05-15T03:59:12.897Z,5.87
2018-05-15T04:04:27.996Z,4.97
2018-05-15T04:09:31.279Z,6.37
2018-05-15T04:14:36.138Z,5.33
2018-05-15T04:19:39.386Z,6.40
2018-05-15T04:24:43.753Z,6.87
2018-05-15T04:29:47.008Z,6.40
2018-05-15T04:34:50.284Z,7.13
2018-05-15T04:39:53.804Z,4.87
2018-05-15T04:44:57.028Z,5.90
2018-05-15T04:50:00.303Z,6.27
2018-05-15T04:55:04.335Z,4.87
2018-05-15T05:00:07.589Z,6.27
2018-05-15T05:05:11.623Z,6.07
2018-05-15T05:10:14.911Z,6.70
2018-05-15T05:15:18.179Z,7.13
2018-05-15T05:20:21.472Z,5.50
2018-05-15T05:25:24.740Z,5.53
2018-05-15T05:30:28.008Z,6.13
2018-05-15T05:35:31.283Z,5.90
2018-05-15T05:40:34.577Z,5.80
2018-05-15T05:45:37.878Z,7.53
2018-05-15T05:50:41.151Z,7.33
2018-05-15T05:55:44.437Z,7.90
2018-05-15T06:00:47.711Z,7.80
2018-05-15T06:05:51.746Z,7.40
2018-05-15T06:10:54.999Z,7.03
2018-05-15T06:15:58.263Z,7.30
2018-05-15T06:21:01.589Z,5.17
2018-05-15T06:26:04.811Z,5.00
2018-05-15T06:31:08.090Z,6.97
2018-05-15T06:36:11.371Z,6.07
2018-05-15T06:41:14.721Z,6.20
2018-05-15T06:46:17.995Z,4.73
2018-05-15T06:51:21.268Z,7.27
2018-05-15T06:56:24.562Z,6.17
2018-05-15T07:01:27.847Z,6.00
2018-05-15T07:06:31.115Z,4.20
2018-05-15T07:11:34.397Z,6.03
2018-05-15T07:16:37.658Z,6.17
2018-05-15T07:21:40.958Z,5.83
2018-05-15T07:26:44.227Z,5.00
2018-05-15T07:31:48.531Z,6.23
2018-05-15T07:36:51.811Z,5.23
2018-05-15T07:41:55.111Z,5.07
2018-05-15T07:46:58.383Z,5.33
2018-05-15T07:52:01.644Z,4.90
2018-05-15T07:57:04.920Z,4.43
2018-05-15T08:02:08.251Z,4.10
2018-05-15T08:07:11.435Z,3.93
2018-05-15T08:12:14.700Z,4.27
2018-05-15T08:17:17.983Z,5.00
2018-05-15T08:22:22.012Z,4.67
2018-05-15T08:27:25.304Z,4.30
2018-05-15T08:32:29.337Z,3.97
2018-05-15T08:37:32.624Z,5.73
2018-05-15T08:42:35.890Z,4.43
2018-05-15T08:47:39.138Z,3.90
2018-05-15T08:52:42.418Z,4.43
2018-05-15T08:57:45.666Z,4.23
2018-05-15T09:02:49.811Z,4.23
2018-05-15T09:07:53.068Z,3.70
2018-05-15T09:12:56.341Z,3.47
2018-05-15T09:17:59.611Z,3.70
2018-05-15T09:23:02.892Z,3.57
2018-05-15T09:28:06.167Z,3.40
2018-05-15T09:33:09.437Z,3.70
2018-05-15T09:38:12.703Z,3.73
2018-05-15T09:43:28.675Z,3.17
2018-05-15T09:48:32.070Z,3.23
2018-05-15T09:53:35.351Z,3.03
2018-05-15T09:58:38.611Z,3.60
2018-05-15T10:03:42.631Z,3.40
2018-05-15T10:08:45.894Z,3.40
2018-05-15T10:13:49.141Z,3.40
2018-05-15T10:18:53.539Z,3.47
2018-05-15T10:23:56.801Z,2.83
2018-05-15T10:29:00.099Z,2.93
2018-05-15T10:34:03.366Z,3.23
2018-05-15T10:39:06.623Z,3.20
2018-05-15T10:44:09.959Z,3.73
2018-05-15T10:49:13.281Z,3.53
2018-05-15T10:54:16.547Z,3.17
2018-05-15T10:59:19.843Z,3.57
2018-05-15T11:04:23.188Z,3.50
2018-05-15T11:09:26.423Z,3.20
2018-05-15T11:14:29.715Z,3.70
2018-05-15T11:19:44.789Z,3.20
2018-05-15T11:24:52.231Z,3.70
2018-05-15T11:29:55.509Z,3.30
2018-05-15T11:34:58.802Z,3.70
2018-05-15T11:40:02.104Z,3.50
2018-05-15T11:45:05.379Z,3.27
2018-05-15T11:50:09.447Z,3.40
2018-05-15T11:55:12.012Z,3.77
2018-05-15T12:00:15.343Z,3.47
2018-05-15T12:05:18.586Z,3.53
2018-05-15T12:10:21.844Z,3.87
2018-05-15T12:15:25.911Z,3.30
2018-05-15T12:20:29.188Z,3.87
2018-05-15T12:25:32.683Z,3.90
2018-05-15T12:30:35.939Z,4.07
2018-05-15T12:35:39.207Z,3.67
2018-05-15T12:40:42.599Z,3.63
2018-05-15T12:45:45.954Z,3.43
2018-05-15T12:50:49.216Z,3.33
2018-05-15T12:55:52.493Z,3.90
2018-05-15T13:00:55.756Z,3.70
2018-05-15T13:05:59.020Z,3.70
2018-05-15T13:11:02.279Z,4.50
2018-05-15T13:16:05.547Z,4.97
2018-05-15T13:21:08.799Z,3.73
2018-05-15T13:26:12.127Z,4.13
2018-05-15T13:31:15.426Z,4.17
2018-05-15T13:36:18.684Z,3.50
2018-05-15T13:41:21.951Z,3.40
2018-05-15T13:46:26.035Z,3.57
2018-05-15T13:51:30.090Z,3.87
2018-05-15T13:56:33.396Z,3.30
2018-05-15T14:01:37.406Z,4.27
2018-05-15T14:06:40.820Z,4.00
2018-05-15T14:11:44.020Z,3.80
2018-05-15T14:16:47.413Z,4.03
2018-05-15T14:21:50.675Z,4.27
2018-05-15T14:26:53.995Z,4.23
2018-05-15T14:31:58.496Z,4.80
2018-05-15T14:37:01.772Z,4.07
2018-05-15T14:42:16.758Z,3.87
2018-05-15T14:47:20.963Z,4.00
2018-05-15T14:52:24.216Z,4.10
2018-05-15T14:57:28.325Z,4.20
2018-05-15T15:02:31.586Z,3.70
2018-05-15T15:07:34.863Z,4.77
2018-05-15T15:12:38.889Z,3.93
2018-05-15T15:17:42.159Z,4.00
2018-05-15T15:22:45.476Z,3.33
2018-05-15T15:27:48.752Z,3.20
2018-05-15T15:32:52.220Z,3.30
2018-05-15T15:37:57.227Z,3.77
2018-05-15T15:43:00.514Z,3.00
2018-05-15T15:48:04.582Z,3.63
2018-05-15T15:53:07.852Z,3.23
2018-05-15T15:58:11.124Z,3.30
2018-05-15T16:03:14.384Z,3.17
2018-05-15T16:08:17.663Z,3.67
2018-05-15T16:13:21.043Z,3.20
2018-05-15T16:18:24.302Z,3.20
2018-05-15T16:23:27.591Z,3.37
2018-05-15T16:28:30.983Z,3.30
2018-05-15T16:33:34.260Z,3.53
2018-05-15T16:38:37.540Z,3.50
2018-05-15T16:43:40.947Z,3.13
2018-05-15T16:48:44.201Z,3.40
2018-05-15T16:53:47.492Z,3.63
2018-05-15T16:58:50.844Z,3.27
2018-05-15T17:03:54.017Z,3.77
2018-05-15T17:08:57.335Z,3.27
2018-05-15T17:14:00.671Z,3.50
2018-05-15T17:19:03.952Z,4.10
2018-05-15T17:24:07.197Z,3.43
2018-05-15T17:29:10.490Z,3.63
2018-05-15T17:34:13.811Z,3.53
2018-05-15T17:39:17.076Z,3.10
2018-05-15T17:44:20.506Z,3.40
2018-05-15T17:49:23.813Z,3.50
2018-05-15T17:54:27.121Z,3.23
2018-05-15T17:59:30.473Z,3.37
2018-05-15T18:04:33.708Z,3.10
2018-05-15T18:14:47.199Z,3.83
2018-05-15T18:19:52.246Z,3.50
2018-05-15T18:24:55.528Z,3.30
2018-05-15T18:29:58.862Z,3.90
2018-05-15T18:35:02.291Z,3.23
2018-05-15T18:40:05.640Z,3.70
2018-05-15T18:45:08.960Z,3.53
2018-05-15T18:50:13.027Z,3.60
2018-05-15T18:55:16.288Z,3.43
2018-05-15T19:00:19.557Z,3.80
2018-05-15T19:05:23.588Z,4.07
2018-05-15T19:10:26.876Z,4.00
2018-05-15T19:15:30.145Z,3.80
2018-05-15T19:20:33.435Z,3.53
2018-05-15T19:25:36.680Z,3.87
2018-05-15T19:30:40.580Z,4.00
2018-05-15T19:35:43.842Z,3.80
2018-05-15T19:40:48.400Z,4.30
2018-05-15T19:45:52.559Z,4.20
2018-05-15T19:50:55.824Z,3.83
2018-05-15T19:55:59.082Z,3.93
2018-05-15T20:01:02.355Z,3.93
2018-05-15T20:06:06.330Z,4.20
2018-05-15T20:11:09.579Z,4.27
2018-05-15T20:16:14.383Z,4.47
2018-05-15T20:21:17.745Z,4.43
2018-05-15T20:26:21.036Z,4.70
2018-05-15T20:31:24.966Z,4.80
2018-05-15T20:36:28.278Z,4.67
2018-05-15T20:41:31.544Z,4.43
2018-05-15T20:46:34.808Z,4.10
2018-05-15T20:51:38.305Z,4.57
2018-05-15T20:56:42.342Z,4.43
2018-05-15T21:01:46.419Z,4.70
2018-05-15T21:06:49.674Z,4.87
2018-05-15T21:11:53.723Z,4.43
2018-05-15T21:16:57.740Z,4.60
2018-05-15T21:22:01.761Z,4.90
2018-05-15T21:27:05.791Z,4.67
2018-05-15T21:32:09.060Z,4.73
2018-05-15T21:37:12.331Z,4.73
2018-05-15T21:42:15.623Z,4.90
2018-05-15T21:47:18.885Z,5.10
2018-05-15T21:52:22.151Z,5.70
2018-05-15T21:57:25.415Z,4.37
2018-05-15T22:02:29.455Z,4.80
2018-05-15T22:07:32.723Z,5.20
2018-05-15T22:12:47.846Z,4.47
2018-05-15T22:18:03.815Z,5.00
2018-05-15T22:23:06.572Z,4.13
2018-05-15T22:28:09.831Z,4.80
2018-05-15T22:33:13.987Z,4.80
2018-05-15T22:38:17.339Z,4.50
2018-05-15T22:43:20.602Z,4.60
2018-05-15T22:48:24.641Z,4.90
2018-05-15T22:53:27.932Z,4.63
2018-05-15T22:58:31.197Z,4.80
2018-05-15T23:03:34.456Z,5.20
2018-05-15T23:08:38.477Z,4.80
2018-05-15T23:13:42.620Z,4.60
2018-05-15T23:18:45.889Z,4.93
2018-05-15T23:23:49.151Z,5.03
2018-05-15T23:28:52.444Z,5.37
2018-05-15T23:33:56.467Z,4.97
2018-05-15T23:38:59.720Z,5.43
2018-05-15T23:44:02.980Z,5.47
2018-05-15T23:49:07.011Z,4.70
2018-05-15T23:54:10.301Z,6.10
2018-05-15T23:59:13.572Z,5.23
